Time;durP1;ratioP1;P1;durP2;ratioP2;P2;SDS_P1;SDS_P2;PMS_P1;PMS_P2;Temp;Humidity;BMP_temperature;BMP_pressure;BME280_temperature;BME280_humidity;BME280_pressure;Samples;Min_cycle;Max_cycle;Signal;HPM_P1;HPM_P2
2022/05/16 00:02:13;;;;;;;5.43;5.00;;;;;;;13.61;100.00;63402.16;5002010;28;20267;-76
2022/05/16 00:04:43;;;;;;;5.15;4.85;;;;;;;13.58;100.00;63399.03;5016266;28;20238;-75
2022/05/16 00:07:10;;;;;;;6.43;5.93;;;;;;;13.51;100.00;63391.28;5005036;28;20234;-75
2022/05/16 00:09:37;;;;;;;6.68;6.00;;;;;;;13.51;100.00;63391.78;5005595;28;20224;-76
2022/05/16 00:12:07;;;;;;;7.72;5.68;;;;;;;13.48;100.00;63391.22;5009945;28;20399;-76
2022/05/16 00:14:35;;;;;;;6.53;5.75;;;;;;;13.47;100.00;63387.63;5024538;28;20234;-76
2022/05/16 00:17:02;;;;;;;6.72;6.13;;;;;;;13.43;100.00;63388.06;5022771;28;20289;-75
2022/05/16 00:19:29;;;;;;;7.85;6.53;;;;;;;13.39;100.00;63379.31;5005560;28;20526;-76
2022/05/16 00:21:56;;;;;;;6.80;6.30;;;;;;;13.42;100.00;63387.03;4985436;28;20208;-75
2022/05/16 00:24:26;;;;;;;6.25;5.75;;;;;;;13.47;100.00;63387.13;5011510;28;20219;-77
2022/05/16 00:26:53;;;;;;;8.55;6.28;;;;;;;13.45;100.00;63379.91;5023604;28;20491;-76
2022/05/16 00:29:21;;;;;;;6.43;5.57;;;;;;;13.37;100.00;63379.31;5010342;28;20265;-76
2022/05/16 00:31:49;;;;;;;5.40;4.90;;;;;;;13.35;100.00;63382.34;5020174;28;20199;-76
2022/05/16 00:34:17;;;;;;;6.45;5.07;;;;;;;13.34;100.00;63373.63;5024158;28;20245;-76
2022/05/16 00:36:47;;;;;;;4.80;4.50;;;;;;;13.35;100.00;63377.22;5009575;28;20207;-76
2022/05/16 00:39:14;;;;;;;6.80;6.18;;;;;;;13.29;100.00;63373.53;5005338;28;20298;-75
2022/05/16 00:41:41;;;;;;;5.50;5.00;;;;;;;13.27;100.00;63369.44;5004507;28;20230;-76
2022/05/16 00:44:09;;;;;;;5.93;5.45;;;;;;;13.27;100.00;63372.00;5004161;28;20226;-75
2022/05/16 00:46:37;;;;;;;5.95;5.45;;;;;;;13.21;100.00;63360.13;5000918;28;20191;-76
2022/05/16 00:49:09;;;;;;;5.88;5.43;;;;;;;13.20;100.00;63359.63;5009552;28;20388;-75
2022/05/16 00:51:41;;;;;;;6.03;5.55;;;;;;;13.19;100.00;63361.13;5009343;28;20226;-75
2022/05/16 00:54:13;;;;;;;5.75;5.30;;;;;;;13.14;100.00;63355.44;5017915;28;20218;-76
2022/05/16 00:56:40;;;;;;;6.05;5.55;;;;;;;13.12;100.00;63359.00;5008364;28;20427;-75
2022/05/16 00:59:08;;;;;;;7.30;6.18;;;;;;;13.15;100.00;63356.47;5017558;28;20463;-75
2022/05/16 01:07:05;;;;;;;9.43;5.50;;;;;;;13.01;100.00;63341.94;5002033;28;20261;-75
2022/05/16 01:09:33;;;;;;;6.97;6.28;;;;;;;12.98;100.00;63338.81;5005936;28;20222;-75
2022/05/16 01:12:01;;;;;;;6.57;6.03;;;;;;;12.95;100.00;63333.66;5008356;28;20295;-75
2022/05/16 01:14:47;;;;;;;6.22;5.72;;;;;;;12.97;100.00;63340.84;5009247;28;20251;-76
2022/05/16 01:17:15;;;;;;;7.53;6.13;;;;;;;12.95;100.00;63333.16;4986156;28;20196;-76
2022/05/16 01:19:42;;;;;;;5.97;5.30;;;;;;;12.90;100.00;63325.94;5008092;28;20281;-76
2022/05/16 01:22:22;;;;;;;6.65;6.13;;;;;;;12.90;100.00;63335.63;5011416;28;20250;-76
2022/05/16 01:24:49;;;;;;;7.40;6.10;;;;;;;12.91;100.00;63332.06;5011140;28;20223;-75
2022/05/16 01:27:16;;;;;;;6.18;5.68;;;;;;;12.92;100.00;63327.47;5008797;28;20204;-76
2022/05/16 01:29:43;;;;;;;6.80;5.82;;;;;;;12.92;100.00;63332.59;4985597;28;20220;-76
2022/05/16 01:32:10;;;;;;;6.05;5.63;;;;;;;12.95;100.00;63333.66;5009654;28;20199;-76
2022/05/16 01:34:37;;;;;;;6.47;5.88;;;;;;;12.91;100.00;63331.56;5003777;28;20594;-76
2022/05/16 01:37:05;;;;;;;6.80;5.72;;;;;;;12.82;100.00;63323.25;5015905;28;20217;-76
2022/05/16 01:39:33;;;;;;;6.57;6.03;;;;;;;12.80;100.00;63320.66;5003341;28;20300;-76
2022/05/16 01:42:00;;;;;;;6.70;5.55;;;;;;;12.80;100.00;63321.19;5012385;28;20199;-75
2022/05/16 01:44:27;;;;;;;6.15;5.55;;;;;;;12.80;100.00;63323.22;5016361;28;20218;-76
2022/05/16 01:46:55;;;;;;;7.57;5.45;;;;;;;12.77;100.00;63318.06;5019737;28;20430;-76
2022/05/16 01:49:21;;;;;;;5.95;5.13;;;;;;;12.74;100.00;63311.88;5003779;28;20219;-75
2022/05/16 01:51:48;;;;;;;5.60;5.20;;;;;;;12.70;100.00;63310.31;5002397;28;20258;-76
2022/05/16 01:54:15;;;;;;;7.20;6.00;;;;;;;12.68;100.00;63303.63;5004796;28;20223;-76
2022/05/16 01:56:44;;;;;;;5.88;5.38;;;;;;;12.69;100.00;63312.34;5007980;28;20292;-75
2022/05/16 01:59:14;;;;;;;5.35;4.95;;;;;;;12.74;100.00;63311.88;5006838;28;20231;-74
2022/05/16 02:01:41;;;;;;;7.20;5.78;;;;;;;12.75;100.00;63315.50;4989841;28;20212;-76
2022/05/16 02:04:08;;;;;;;6.22;5.63;;;;;;;12.68;100.00;63306.19;4984645;28;20220;-75
2022/05/16 02:06:35;;;;;;;5.75;5.28;;;;;;;12.75;100.00;63312.94;4984469;28;20204;-75
2022/05/16 02:09:02;;;;;;;5.53;4.97;;;;;;;12.76;100.00;63314.47;4984679;28;20202;-75
2022/05/16 02:11:29;;;;;;;5.72;5.13;;;;;;;12.71;100.00;63308.78;5003085;28;20258;-75
2022/05/16 02:13:57;;;;;;;5.15;4.75;;;;;;;12.72;100.00;63310.34;5003095;28;20238;-75
2022/05/16 02:16:24;;;;;;;4.90;4.50;;;;;;;12.82;100.00;63322.22;5003102;28;20215;-75
2022/05/16 02:18:51;;;;;;;7.55;4.78;;;;;;;12.81;100.00;63319.16;4997070;28;20235;-75
2022/05/16 02:26:47;;;;;;;7.63;4.90;;;;;;;12.74;100.00;63317.00;5021566;28;20210;-75
2022/05/16 02:29:19;;;;;;;7.80;5.32;;;;;;;12.75;100.00;63313.44;5005092;28;20219;-75
2022/05/16 02:31:47;;;;;;;4.97;4.57;;;;;;;12.81;100.00;63319.16;5006916;28;20402;-75
2022/05/16 02:34:14;;;;;;;5.72;5.22;;;;;;;12.80;100.00;63318.63;5006690;28;20223;-76
2022/05/16 02:36:41;;;;;;;5.28;4.78;;;;;;;12.77;100.00;63315.00;5000570;28;20204;-76
2022/05/16 02:39:08;;;;;;;6.40;5.32;;;;;;;12.77;100.00;63315.00;4987457;28;20454;-75
2022/05/16 02:41:34;;;;;;;5.18;4.78;;;;;;;12.77;100.00;63315.00;4987245;28;20223;-76
2022/05/16 02:44:02;;;;;;;5.10;4.70;;;;;;;12.66;100.00;63311.78;4987031;28;20235;-75
2022/05/16 02:46:30;;;;;;;6.43;5.28;;;;;;;12.55;100.00;63295.25;4991200;28;20310;-75
2022/05/16 02:48:58;;;;;;;7.53;5.32;;;;;;;12.58;100.00;63295.81;4987253;28;20211;-75
2022/05/16 02:51:25;;;;;;;5.28;4.60;;;;;;;12.56;100.00;63293.72;4993463;28;20282;-76
2022/05/16 02:53:52;;;;;;;4.68;4.38;;;;;;;12.56;100.00;63295.78;5004545;28;20497;-75
2022/05/16 02:56:19;;;;;;;5.20;4.75;;;;;;;12.61;100.00;63298.91;5003918;28;20211;-75
2022/05/16 02:58:46;;;;;;;5.13;4.63;;;;;;;12.61;100.00;63298.91;5020450;28;20405;-76
2022/05/16 03:01:13;;;;;;;4.97;4.57;;;;;;;12.67;100.00;63307.69;5026103;28;20198;-75
2022/05/16 03:03:42;;;;;;;7.03;5.15;;;;;;;12.71;100.00;63308.78;5012968;28;20210;-75
2022/05/16 03:06:09;;;;;;;5.20;4.55;;;;;;;12.71;100.00;63311.34;4986616;28;20219;-75
2022/05/16 03:08:38;;;;;;;4.85;4.47;;;;;;;12.68;100.00;63305.69;4986829;28;20204;-75
2022/05/16 03:11:06;;;;;;;6.03;5.38;;;;;;;12.72;100.00;63312.88;4987097;28;20223;-76
2022/05/16 03:13:33;;;;;;;21.40;15.27;;;;;;;12.68;100.00;63305.69;5007513;28;20270;-77
2022/05/16 03:16:01;;;;;;;7.45;4.35;;;;;;;12.76;100.00;63313.97;5006204;28;20294;-76
2022/05/16 03:18:29;;;;;;;5.25;4.82;;;;;;;12.78;100.00;63319.13;5006064;28;20227;-75
2022/05/16 03:20:59;;;;;;;6.80;5.00;;;;;;;12.79;100.00;63319.63;5013106;28;20230;-77
2022/05/16 03:23:25;;;;;;;5.00;4.63;;;;;;;12.87;100.00;63327.41;5002087;28;20266;-74
2022/05/16 03:25:53;;;;;;;7.65;5.10;;;;;;;12.90;100.00;63327.97;5005790;28;20219;-73
2022/05/16 03:28:20;;;;;;;4.63;4.22;;;;;;;12.94;100.00;63337.22;5005802;28;20238;-76
2022/05/16 03:30:47;;;;;;;4.63;4.22;;;;;;;13.01;100.00;63341.94;5004949;28;20226;-76
2022/05/16 03:33:15;;;;;;;4.47;4.18;;;;;;;13.08;100.00;63347.16;5009314;28;20199;-74
2022/05/16 03:35:42;;;;;;;5.47;4.30;;;;;;;13.08;100.00;63341.53;5006885;28;20223;-76
2022/05/16 03:40:41;;;;;;;4.53;4.22;;;;;;;13.14;100.00;63355.44;5008624;28;20206;-76
2022/05/16 03:40:57;;;;;;;5.55;5.05;;;;;;;13.14;100.00;63353.41;5010554;28;20234;-75
2022/05/16 03:43:25;;;;;;;6.13;5.60;;;;;;;12.61;100.00;63301.47;5010786;28;20209;-76
2022/05/16 03:45:51;;;;;;;6.82;5.90;;;;;;;12.48;100.00;63293.09;5012025;28;20219;-75
2022/05/16 03:48:18;;;;;;;7.85;6.15;;;;;;;12.19;100.00;63257.94;5006390;28;20199;-75
2022/05/16 03:50:45;;;;;;;7.15;6.50;;;;;;;12.08;100.00;63246.53;5018331;28;20222;-75
2022/05/16 03:53:13;;;;;;;7.93;7.10;;;;;;;12.03;100.00;63241.34;5018375;28;20199;-75
2022/05/16 03:55:40;;;;;;;14.10;7.90;;;;;;;12.01;100.00;63236.72;5005144;28;20278;-75
2022/05/16 03:58:07;;;;;;;10.18;8.15;;;;;;;11.97;100.00;63235.16;5003944;28;20241;-74
2022/05/16 04:00:34;;;;;;;9.18;8.25;;;;;;;11.99;100.00;63234.16;4985732;28;20246;-76
2022/05/16 04:03:01;;;;;;;9.30;8.38;;;;;;;12.02;100.00;63240.31;4986116;28;20207;-74
2022/05/16 04:05:28;;;;;;;11.13;9.70;;;;;;;12.08;100.00;63243.97;4986171;28;20224;-75
2022/05/16 04:07:56;;;;;;;8.68;7.88;;;;;;;12.16;100.00;63256.88;4988971;28;20204;-76
2022/05/16 04:10:25;;;;;;;8.50;7.75;;;;;;;12.15;100.00;63250.72;4985915;28;20224;-75
2022/05/16 04:12:52;;;;;;;10.35;9.20;;;;;;;12.18;100.00;63256.91;4985944;28;20196;-75
2022/05/16 04:15:21;;;;;;;12.93;9.10;;;;;;;12.28;100.00;63267.28;4985816;28;20227;-76
2022/05/16 04:17:48;;;;;;;14.00;10.05;;;;;;;12.30;100.00;63268.81;5001300;28;20505;-75
2022/05/16 04:20:16;;;;;;;16.88;9.95;;;;;;;12.54;100.00;63293.72;5007415;28;20411;-74
2022/05/16 04:22:43;;;;;;;14.80;9.27;;;;;;;12.62;100.00;63305.06;5008738;28;20472;-75
2022/05/16 04:25:12;;;;;;;12.35;11.00;;;;;;;12.75;100.00;63315.50;5007943;28;20219;-75
2022/05/16 04:27:40;;;;;;;16.98;11.60;;;;;;;12.86;100.00;63324.34;4987607;28;20421;-74
2022/05/16 04:30:09;;;;;;;14.30;11.57;;;;;;;12.96;100.00;63334.19;4986474;28;20220;-76
2022/05/16 04:32:36;;;;;;;13.40;12.00;;;;;;;12.79;100.00;63314.50;4992369;28;20218;-76
2022/05/16 04:35:03;;;;;;;17.25;13.23;;;;;;;12.77;100.00;63312.44;5007856;28;20231;-77
2022/05/16 04:37:32;;;;;;;16.35;13.68;;;;;;;12.88;100.00;63325.88;5025429;28;20269;-75
2022/05/16 04:39:59;;;;;;;17.58;13.50;;;;;;;12.87;100.00;63327.41;5026507;28;20241;-75
2022/05/16 04:42:41;;;;;;;15.65;13.00;;;;;;;12.90;100.00;63325.94;5029343;28;20218;-76
2022/05/16 04:45:13;;;;;;;15.32;13.80;;;;;;;13.10;100.00;63351.28;5014363;28;20291;-76
2022/05/16 04:47:40;;;;;;;16.48;13.15;;;;;;;13.16;100.00;63357.50;5028206;28;20262;-75
2022/05/16 04:50:08;;;;;;;15.80;12.88;;;;;;;13.37;100.00;63381.84;5006502;28;20221;-75
2022/05/16 04:52:35;;;;;;;19.63;13.05;;;;;;;13.63;100.00;63406.78;5005843;28;20218;-75
2022/05/16 04:55:02;;;;;;;17.55;12.73;;;;;;;13.84;100.00;63430.63;5005022;28;20223;-75
2022/05/16 04:57:30;;;;;;;14.98;13.43;;;;;;;13.90;100.00;63434.31;5018008;28;20245;-76
2022/05/16 04:59:57;;;;;;;22.88;14.25;;;;;;;14.07;100.00;63451.41;5024347;28;20301;-76
2022/05/16 05:02:25;;;;;;;16.17;12.88;;;;;;;14.09;100.00;63454.03;4996850;28;20207;-76
2022/05/16 05:04:52;;;;;;;14.27;12.75;;;;;;;14.31;100.00;63473.81;4984707;28;20452;-76
2022/05/16 05:07:18;;;;;;;14.50;12.57;;;;;;;14.53;100.00;63499.22;4984211;28;20200;-75
2022/05/16 05:15:17;;;;;;;18.50;13.02;;;;;;;14.89;100.00;63539.69;5003610;28;20225;-75
2022/05/16 05:17:45;;;;;;;12.82;11.55;;;;;;;14.95;100.00;63545.94;5003359;28;20203;-76
2022/05/16 05:20:14;;;;;;;20.27;12.70;;;;;;;14.89;100.00;63536.63;4995268;28;20235;-75
2022/05/16 05:22:42;;;;;;;19.70;13.32;;;;;;;14.95;100.00;63542.84;4989010;28;20199;-75
2022/05/16 05:25:11;;;;;;;19.42;13.07;;;;;;;15.02;100.00;63548.06;5023729;28;20261;-76
2022/05/16 05:27:39;;;;;;;17.60;13.50;;;;;;;15.16;100.00;63561.56;5023471;28;20203;-76
2022/05/16 05:30:08;;;;;;;17.30;12.63;;;;;;;15.16;100.00;63559.53;5002578;28;20257;-77
2022/05/16 05:32:34;;;;;;;16.83;13.40;;;;;;;15.22;100.00;63572.94;5003905;28;20200;-75
2022/05/16 05:35:04;;;;;;;16.05;12.65;;;;;;;15.23;100.00;63574.00;5005406;28;20449;-75
2022/05/16 05:37:31;;;;;;;14.70;12.20;;;;;;;15.27;100.00;63575.59;5002946;28;20207;-75
2022/05/16 05:40:00;;;;;;;15.98;11.25;;;;;;;15.20;100.00;63568.31;4986423;28;20251;-76
2022/05/16 05:42:28;;;;;;;19.98;11.93;;;;;;;15.34;100.00;63580.81;5016006;28;20202;-76
2022/05/16 05:44:55;;;;;;;12.70;10.38;;;;;;;15.65;100.00;63615.59;5025052;28;20218;-75
2022/05/16 05:47:22;;;;;;;14.68;11.38;;;;;;;15.98;100.00;63646.84;5011254;28;20273;-77
2022/05/16 05:49:49;;;;;;;18.33;12.07;;;;;;;15.95;100.00;63648.84;5011767;28;20282;-76
2022/05/16 05:52:18;;;;;;;14.57;9.73;;;;;;;15.92;99.90;63643.69;5023606;28;20194;-76
2022/05/16 05:54:46;;;;;;;11.88;10.68;;;;;;;15.86;99.50;63634.88;5005974;28;20218;-76
2022/05/16 05:57:14;;;;;;;14.02;10.27;;;;;;;16.00;99.03;63652.00;4987558;28;20204;-77
2022/05/16 05:59:41;;;;;;;14.73;10.43;;;;;;;16.11;97.14;63660.88;4988078;28;20453;-76
2022/05/16 06:02:09;;;;;;;14.10;10.38;;;;;;;16.11;97.68;63660.38;4991397;28;20243;-76
2022/05/16 06:04:36;;;;;;;14.02;9.35;;;;;;;16.30;96.76;63680.13;4999884;28;20222;-76
2022/05/16 06:07:04;;;;;;;12.13;9.75;;;;;;;16.42;95.30;63689.50;5015922;28;20202;-74
2022/05/16 06:09:32;;;;;;;14.05;8.85;;;;;;;16.59;94.16;63715.44;4999857;28;20222;-75
2022/05/16 06:11:59;;;;;;;10.23;9.23;;;;;;;16.65;92.26;63716.03;4989375;28;20201;-76
2022/05/16 06:14:27;;;;;;;13.95;9.82;;;;;;;16.70;92.49;63721.25;5006004;28;20226;-75
2022/05/16 06:16:54;;;;;;;14.68;9.30;;;;;;;16.75;91.40;63729.00;5006068;28;20258;-75
2022/05/16 06:19:21;;;;;;;9.68;8.68;;;;;;;16.79;91.80;63733.69;5002831;28;20415;-76
2022/05/16 06:21:48;;;;;;;9.75;8.77;;;;;;;16.86;90.07;63740.97;4992127;28;20231;-77
2022/05/16 06:27:03;;;;;;;11.77;8.27;;;;;;;17.06;88.57;63758.69;5006015;28;20422;-76
2022/05/16 06:29:30;;;;;;;8.52;7.63;;;;;;;17.24;87.55;63775.38;4987225;28;20220;-76
2022/05/16 06:31:57;;;;;;;14.18;8.05;;;;;;;17.28;86.07;63779.53;4986001;28;20199;-75
2022/05/16 06:34:24;;;;;;;10.32;8.07;;;;;;;17.30;84.14;63783.69;5008392;28;20217;-76
2022/05/16 06:36:51;;;;;;;8.05;7.25;;;;;;;17.37;81.39;63796.13;5008472;28;20228;-75
2022/05/16 06:39:18;;;;;;;9.38;7.32;;;;;;;17.63;79.71;63823.22;4990260;28;20306;-75
2022/05/16 06:41:44;;;;;;;11.50;6.97;;;;;;;17.48;79.41;63802.44;5017447;28;20226;-76
2022/05/16 06:44:14;;;;;;;11.57;8.55;;;;;;;17.54;81.91;63808.69;5025330;28;20245;-75
2022/05/16 06:46:44;;;;;;;8.27;7.38;;;;;;;17.66;81.57;63821.19;5021978;28;20463;-75
2022/05/16 06:49:11;;;;;;;10.98;6.63;;;;;;;17.76;78.97;63831.59;5007164;28;20242;-76
2022/05/16 06:51:38;;;;;;;7.90;6.90;;;;;;;17.75;78.46;63833.13;5022305;28;20519;-75
2022/05/16 06:54:06;;;;;;;13.15;7.13;;;;;;;17.76;79.37;63836.75;5011294;28;20418;-75
2022/05/16 06:56:33;;;;;;;8.98;5.97;;;;;;;17.75;78.17;63830.56;4990328;28;20203;-76
2022/05/16 06:59:00;;;;;;;10.07;7.47;;;;;;;17.86;78.42;63839.44;4993475;28;20240;-75
2022/05/16 07:01:28;;;;;;;7.10;6.38;;;;;;;17.77;78.34;63837.28;5005687;28;20549;-75
2022/05/16 07:03:55;;;;;;;8.38;7.57;;;;;;;17.80;78.34;63833.19;4999669;28;20206;-76
2022/05/16 07:06:21;;;;;;;8.43;6.95;;;;;;;17.96;77.64;63855.00;5013429;28;20505;-76
2022/05/16 07:08:48;;;;;;;7.80;6.55;;;;;;;18.13;76.21;63867.56;5004925;28;20206;-75
2022/05/16 07:11:16;;;;;;;8.25;7.45;;;;;;;18.22;75.58;63882.06;5004771;28;20198;-76
2022/05/16 07:13:42;;;;;;;9.18;7.13;;;;;;;18.30;75.10;63887.31;4968684;28;1179874;-75
2022/05/16 07:16:09;;;;;;;10.82;8.15;;;;;;;18.44;78.06;63907.09;5031704;28;20218;-75
2022/05/16 07:18:38;;;;;;;18.33;8.32;;;;;;;18.60;72.52;63920.66;5007709;28;20203;-75
2022/05/16 07:21:06;;;;;;;9.13;8.25;;;;;;;18.41;74.18;63896.75;4987468;28;20235;-76
2022/05/16 07:23:33;;;;;;;10.35;8.32;;;;;;;18.49;69.65;63911.78;5003993;28;20446;-75
2022/05/16 07:28:45;;;;;;;15.48;8.55;;;;;;;18.44;72.37;63899.34;5017776;28;20233;-75
2022/05/16 07:31:12;;;;;;;9.68;8.02;;;;;;;18.53;70.13;63913.38;5025927;28;20455;-76
2022/05/16 07:33:40;;;;;;;8.15;7.30;;;;;;;18.80;68.01;63944.59;5007983;28;20207;-75
2022/05/16 07:36:08;;;;;;;7.72;7.03;;;;;;;19.01;68.48;63961.34;4992077;28;20234;-75
2022/05/16 07:38:35;;;;;;;12.52;7.93;;;;;;;19.01;66.92;63960.81;5025314;28;20209;-75
2022/05/16 07:41:02;;;;;;;11.70;8.90;;;;;;;19.20;65.10;63975.47;5024845;28;20423;-76
2022/05/16 07:43:30;;;;;;;9.48;8.23;;;;;;;19.08;65.23;63971.22;4995372;28;20199;-76
2022/05/16 07:45:57;;;;;;;13.73;8.15;;;;;;;19.07;64.52;63972.75;4989269;28;20261;-75
2022/05/16 07:48:24;;;;;;;9.15;8.30;;;;;;;19.14;66.66;63980.03;5021077;28;20198;-75
2022/05/16 07:50:53;;;;;;;15.70;7.65;;;;;;;19.20;67.56;63981.16;5023928;28;20237;-79
2022/05/16 07:53:20;;;;;;;7.97;7.13;;;;;;;19.42;65.64;64006.69;4996404;28;20199;-75
2022/05/16 07:55:51;;;;;;;8.10;7.30;;;;;;;19.48;66.06;64012.44;5010590;28;20225;-75
2022/05/16 07:58:20;;;;;;;13.13;9.07;;;;;;;19.70;63.35;64032.25;4996797;28;20199;-77
2022/05/16 08:00:49;;;;;;;11.68;8.65;;;;;;;19.86;62.00;64054.66;4987797;28;20227;-78
2022/05/16 08:03:16;;;;;;;13.80;8.25;;;;;;;19.79;64.00;64046.81;4985881;28;20530;-77
2022/05/16 08:05:44;;;;;;;8.57;7.70;;;;;;;19.70;62.40;64035.38;4994885;28;20594;-77
2022/05/16 08:11:00;;;;;;;11.43;7.97;;;;;;;20.09;58.89;64078.63;4992271;28;20566;-78
2022/05/16 08:13:28;;;;;;;13.80;8.65;;;;;;;20.28;59.22;64098.47;5006522;28;20265;-80
2022/05/16 08:15:55;;;;;;;8.68;7.68;;;;;;;20.45;61.92;64116.22;5017473;28;20257;-78
2022/05/16 08:18:23;;;;;;;9.07;7.47;;;;;;;20.48;55.66;64118.84;4998052;28;20206;-79
2022/05/16 08:20:51;;;;;;;6.70;6.03;;;;;;;20.61;54.56;64129.81;5016690;28;20269;-78
2022/05/16 08:23:22;;;;;;;7.80;7.05;;;;;;;20.75;55.79;64141.31;5022318;28;20194;-78
2022/05/16 08:25:49;;;;;;;7.03;6.13;;;;;;;20.64;51.24;64130.34;5013555;28;20242;-79
2022/05/16 08:28:17;;;;;;;11.10;6.35;;;;;;;20.45;50.79;64113.63;4999580;28;20241;-78
2022/05/16 08:30:44;;;;;;;9.27;5.75;;;;;;;20.61;49.21;64130.34;5004382;28;20237;-79
2022/05/16 08:33:12;;;;;;;6.45;5.95;;;;;;;20.69;48.89;64140.78;4989124;28;20199;-78
2022/05/16 08:35:39;;;;;;;10.50;5.30;;;;;;;20.84;49.15;64148.13;5006217;28;20230;-78
2022/05/16 08:40:58;;;;;;;6.95;6.25;;;;;;;20.95;51.64;64164.78;5013648;28;20408;-78
2022/05/16 08:43:49;;;;;;;7.18;4.60;;;;;;;21.03;45.52;64173.16;5005356;28;20253;-77
2022/05/16 08:46:33;;;;;;;4.13;3.80;;;;;;;21.29;44.00;64198.25;5005557;28;20222;-79
2022/05/16 08:49:11;;;;;;;8.60;3.40;;;;;;;21.32;43.11;64200.84;5004681;28;20201;-78
2022/05/16 08:51:38;;;;;;;3.70;3.40;;;;;;;21.27;44.02;64201.34;5001594;28;20508;-79
2022/05/16 08:54:10;;;;;;;9.50;4.40;;;;;;;21.32;43.77;64203.97;4998605;28;20209;-78
2022/05/16 08:56:43;;;;;;;9.35;3.67;;;;;;;21.52;45.24;64227.44;4990839;28;20405;-78
2022/05/16 08:59:16;;;;;;;4.10;3.78;;;;;;;21.51;43.96;64225.88;4999901;28;20298;-79
2022/05/16 09:01:51;;;;;;;12.70;3.72;;;;;;;21.56;43.36;64229.03;5005032;28;20241;-78
2022/05/16 09:04:24;;;;;;;5.30;3.25;;;;;;;21.64;42.21;64239.97;4994143;28;20219;-79
2022/05/16 09:06:57;;;;;;;4.82;3.13;;;;;;;21.65;39.64;64238.44;5003399;28;20198;-78
2022/05/16 09:09:27;;;;;;;5.72;3.08;;;;;;;21.63;37.83;64238.41;5012489;28;20389;-78
2022/05/16 09:12:03;;;;;;;4.05;2.47;;;;;;;21.65;37.27;64241.03;5006352;28;20191;-78
2022/05/16 09:14:45;;;;;;;2.47;2.28;;;;;;;21.56;37.50;64225.91;4989389;28;20233;-78
2022/05/16 09:17:20;;;;;;;2.97;2.00;;;;;;;21.54;36.76;64221.25;4986578;28;20191;-79
2022/05/16 09:20:12;;;;;;;3.05;2.40;;;;;;;21.43;38.22;64214.94;4995220;28;20217;-78
2022/05/16 09:22:47;;;;;;;2.45;2.25;;;;;;;21.50;37.69;64227.94;5010076;28;20222;-79
2022/05/16 09:25:19;;;;;;;4.65;2.28;;;;;;;21.78;36.01;64254.63;5009917;28;20218;-78
2022/05/16 09:30:39;;;;;;;2.67;1.73;;;;;;;22.05;33.84;64279.22;5003573;28;20284;-79
2022/05/16 09:33:11;;;;;;;2.05;1.80;;;;;;;21.96;35.36;64264.63;5004260;28;20209;-78
2022/05/16 09:35:46;;;;;;;2.75;2.40;;;;;;;22.09;33.95;64280.81;5011249;28;20214;-78
2022/05/16 09:38:13;;;;;;;3.75;1.92;;;;;;;22.11;32.06;64290.66;5011882;28;20229;-78
2022/05/16 09:40:54;;;;;;;2.75;1.70;;;;;;;22.03;32.72;64282.31;5017826;28;20229;-79
2022/05/16 09:43:24;;;;;;;2.00;1.60;;;;;;;22.05;32.55;64279.75;5007891;28;20210;-78
2022/05/16 09:45:57;;;;;;;4.72;1.77;;;;;;;22.07;33.51;64276.13;5025775;28;20285;-78
2022/05/16 09:48:25;;;;;;;1.58;1.30;;;;;;;21.96;30.80;64267.22;5010724;28;20220;-78
2022/05/16 09:51:00;;;;;;;3.22;1.30;;;;;;;22.24;28.39;64297.00;5023741;28;20234;-78
2022/05/16 09:53:33;;;;;;;3.85;1.40;;;;;;;22.01;29.62;64277.63;5015499;28;20194;-79
2022/05/16 09:56:04;;;;;;;3.03;1.83;;;;;;;22.02;30.21;64279.19;4994467;28;20306;-78
2022/05/16 09:58:38;;;;;;;1.88;1.70;;;;;;;22.04;31.56;64278.69;4998607;28;20204;-78
2022/05/16 10:01:07;;;;;;;3.08;1.80;;;;;;;22.15;31.78;64287.06;4988111;28;20252;-76
2022/05/16 10:03:36;;;;;;;4.28;1.48;;;;;;;22.11;31.08;64288.06;5003478;28;20202;-77
2022/05/16 10:06:08;;;;;;;2.05;1.70;;;;;;;22.23;30.70;64295.41;5002408;28;20278;-76
2022/05/16 10:08:42;;;;;;;1.95;1.85;;;;;;;22.38;30.45;64314.22;5001223;28;20242;-77
2022/05/16 10:11:13;;;;;;;2.30;2.05;;;;;;;22.23;30.31;64303.19;5004366;28;20222;-76
2022/05/16 10:13:41;;;;;;;5.13;3.17;;;;;;;22.57;32.10;64333.59;5023305;28;20554;-77
2022/05/16 10:16:10;;;;;;;2.63;1.13;;;;;;;22.67;30.77;64344.03;5023232;28;20220;-77
2022/05/16 10:18:42;;;;;;;2.78;1.80;;;;;;;22.46;32.51;64322.06;4993883;28;20207;-76
2022/05/16 10:21:16;;;;;;;1.73;1.63;;;;;;;22.71;31.55;64346.13;4984120;28;20227;-76
2022/05/16 10:23:45;;;;;;;1.80;1.58;;;;;;;22.92;30.85;64372.25;4986742;28;20199;-77
2022/05/16 10:26:17;;;;;;;3.38;2.20;;;;;;;22.96;33.39;64374.38;4984500;28;20216;-77
2022/05/16 10:28:51;;;;;;;4.47;2.03;;;;;;;22.92;33.56;64372.78;4983993;28;20207;-76
2022/05/16 10:34:12;;;;;;;4.85;3.08;;;;;;;22.97;36.67;64380.59;4994253;28;20206;-77
2022/05/16 10:36:41;;;;;;;3.63;2.58;;;;;;;22.83;34.79;64360.78;5004330;28;20205;-76
2022/05/16 10:39:12;;;;;;;2.22;2.03;;;;;;;22.82;34.63;64362.84;5005217;28;20219;-76
2022/05/16 10:41:46;;;;;;;7.22;2.63;;;;;;;23.00;34.98;64380.63;5005075;28;20229;-77
2022/05/16 10:44:24;;;;;;;3.13;2.50;;;;;;;22.93;34.40;64374.34;4989518;28;20674;-76
2022/05/16 10:47:00;;;;;;;8.20;2.20;;;;;;;23.13;34.01;64391.59;4987049;28;20187;-76
2022/05/16 10:49:34;;;;;;;3.25;2.38;;;;;;;22.93;34.15;64376.94;4987576;28;20532;-76
2022/05/16 10:52:12;;;;;;;6.03;2.60;;;;;;;23.10;35.03;64394.19;5003855;28;20196;-76
2022/05/16 10:54:39;;;;;;;8.98;2.45;;;;;;;23.40;34.40;64420.41;5005516;28;20347;-76
2022/05/16 10:57:45;;;;;;;5.78;3.28;;;;;;;23.31;35.18;64410.47;5006323;28;20214;-77
2022/05/16 11:00:18;;;;;;;5.35;1.98;;;;;;;23.28;35.33;64412.53;4994169;28;20219;-76
2022/05/16 11:03:10;;;;;;;3.30;2.30;;;;;;;23.34;35.08;64416.72;4994638;28;20274;-77
2022/05/16 11:05:42;;;;;;;2.75;2.45;;;;;;;23.19;34.58;64397.91;5006395;28;20225;-77
2022/05/16 11:08:18;;;;;;;2.15;1.80;;;;;;;23.48;34.57;64428.25;5006455;28;20194;-77
2022/05/16 11:10:53;;;;;;;2.38;2.10;;;;;;;23.72;33.55;64453.34;4993264;28;20302;-77
2022/05/16 11:13:32;;;;;;;2.35;2.05;;;;;;;23.72;34.97;64450.75;5002375;28;20210;-76
2022/05/16 11:16:08;;;;;;;5.68;2.70;;;;;;;23.69;33.89;64450.72;5005576;28;20222;-76
2022/05/16 11:18:43;;;;;;;3.17;2.10;;;;;;;23.30;34.77;64412.53;5014090;28;20499;-76
2022/05/16 11:21:28;;;;;;;2.30;2.20;;;;;;;23.14;35.77;64392.66;5014833;28;20301;-77
2022/05/16 11:24:05;;;;;;;2.25;2.15;;;;;;;23.38;36.84;64417.78;5025581;28;20205;-77
2022/05/16 11:26:41;;;;;;;2.70;2.13;;;;;;;23.47;35.49;64427.22;5025237;28;20186;-76
2022/05/16 11:29:19;;;;;;;6.68;2.33;;;;;;;23.78;34.95;64462.75;4994617;28;20230;-77
2022/05/16 11:32:00;;;;;;;5.18;2.13;;;;;;;24.02;33.79;64482.69;4989449;28;20197;-76
2022/05/16 11:34:41;;;;;;;2.00;1.88;;;;;;;23.71;33.91;64450.22;5026578;28;20225;-77
2022/05/16 11:37:19;;;;;;;1.67;1.45;;;;;;;23.69;33.07;64452.81;5011443;28;20262;-77
2022/05/16 11:39:54;;;;;;;3.60;1.80;;;;;;;23.66;33.37;64447.09;4986544;28;20223;-77
2022/05/16 11:42:33;;;;;;;2.28;1.92;;;;;;;23.64;33.45;64447.59;5002553;28;20228;-76
2022/05/16 11:45:10;;;;;;;4.72;2.30;;;;;;;23.58;32.24;64439.25;5005866;28;20225;-76
2022/05/16 11:47:45;;;;;;;2.17;1.67;;;;;;;23.58;32.27;64439.25;5005023;28;20195;-76
2022/05/16 11:50:23;;;;;;;3.10;1.70;;;;;;;23.97;32.56;64482.13;5010716;28;20218;-77
2022/05/16 11:53:01;;;;;;;3.35;1.95;;;;;;;24.29;32.23;64513.03;5024700;28;20257;-76
2022/05/16 12:01:01;;;;;;;3.10;1.60;;;;;;;23.88;30.36;64475.31;4961337;28;20223;-76
2022/05/16 12:03:36;;;;;;;1.95;1.60;;;;;;;24.26;31.36;64506.78;4986958;28;20251;-76
2022/05/16 12:06:34;;;;;;;1.98;1.70;;;;;;;24.24;29.95;64507.81;5002572;28;20222;-75
2022/05/16 12:09:19;;;;;;;4.38;1.50;;;;;;;24.68;29.38;64553.88;4982558;28;20203;-77
2022/05/16 12:11:57;;;;;;;4.30;1.75;;;;;;;24.86;29.45;64572.75;5005166;28;20237;-77
2022/05/16 12:14:28;;;;;;;1.98;1.88;;;;;;;24.66;29.41;64553.88;4993645;28;20231;-76
2022/05/16 12:17:02;;;;;;;1.95;1.83;;;;;;;24.84;29.22;64570.66;4985894;28;20203;-76
2022/05/16 12:19:34;;;;;;;1.23;1.23;;;;;;;24.68;29.53;64559.06;4995910;28;20289;-76